Time;durP1;ratioP1;P1;durP2;ratioP2;P2;SDS_P1;SDS_P2;PMS_P1;PMS_P2;Temp;Humidity;BMP_temperature;BMP_pressure;BME280_temperature;BME280_humidity;BME280_pressure;Samples;Min_cycle;Max_cycle;Signal;HPM_P1;HPM_P2
2024/02/02 00:01:07;;;;;;;;;;;17.60;45.90;;;;;;1566788;74;747;-70
2024/02/02 00:03:09;;;;;;;;;;;17.60;45.90;;;;;;1577265;73;1101;-70
2024/02/02 00:05:11;;;;;;;;;;;17.60;45.90;;;;;;1569937;74;770;-70
2024/02/02 00:07:13;;;;;;;;;;;17.60;45.80;;;;;;1572307;74;1568;-70
2024/02/02 00:09:14;;;;;;;;;;;17.60;45.90;;;;;;1566960;74;639;-70
2024/02/02 00:11:16;;;;;;;;;;;17.70;45.90;;;;;;1561618;74;809;-70
2024/02/02 00:13:19;;;;;;;;;;;17.60;45.90;;;;;;1566255;73;1099;-70
2024/02/02 00:15:21;;;;;;;;;;;17.60;45.90;;;;;;1566535;74;685;-70
2024/02/02 00:17:22;;;;;;;;;;;17.70;45.90;;;;;;1568076;74;709;-68
2024/02/02 00:19:24;;;;;;;;;;;17.70;45.90;;;;;;1569123;74;1930;-70
2024/02/02 00:21:26;;;;;;;;;;;17.60;45.80;;;;;;1568263;74;661;-69
2024/02/02 00:23:28;;;;;;;;;;;17.70;46.00;;;;;;1572310;73;1269;-71
2024/02/02 00:25:30;;;;;;;;;;;17.70;45.90;;;;;;1572972;74;719;-70
2024/02/02 00:27:32;;;;;;;;;;;17.70;45.90;;;;;;1572722;74;685;-70
2024/02/02 00:29:34;;;;;;;;;;;17.70;45.90;;;;;;1567542;74;760;-69
2024/02/02 00:31:36;;;;;;;;;;;17.70;45.90;;;;;;1562920;74;1099;-69
2024/02/02 00:33:37;;;;;;;;;;;17.70;45.90;;;;;;1580276;74;736;-70
2024/02/02 00:35:39;;;;;;;;;;;17.70;45.90;;;;;;1573231;74;704;-70
2024/02/02 00:37:43;;;;;;;;;;;17.60;45.80;;;;;;1570779;74;848;-70
2024/02/02 00:39:45;;;;;;;;;;;17.60;45.80;;;;;;1562618;74;1900;-70
2024/02/02 00:41:47;;;;;;;;;;;17.60;45.90;;;;;;1568533;74;1091;-69
2024/02/02 00:43:49;;;;;;;;;;;17.70;46.00;;;;;;1565470;74;780;-69
2024/02/02 00:45:51;;;;;;;;;;;17.70;45.90;;;;;;1576230;74;714;-71
2024/02/02 00:47:53;;;;;;;;;;;17.70;45.90;;;;;;1572691;74;656;-71
2024/02/02 00:49:54;;;;;;;;;;;17.70;45.90;;;;;;1561465;74;667;-71
2024/02/02 00:51:56;;;;;;;;;;;17.70;45.90;;;;;;1567909;74;1139;-66
2024/02/02 00:53:58;;;;;;;;;;;17.70;45.90;;;;;;1568616;74;700;-70
2024/02/02 00:56:00;;;;;;;;;;;17.70;45.90;;;;;;1567530;74;667;-70
2024/02/02 00:58:02;;;;;;;;;;;17.60;45.80;;;;;;1570977;74;708;-69
2024/02/02 01:00:05;;;;;;;;;;;17.60;45.80;;;;;;1571039;74;1938;-70
2024/02/02 01:02:07;;;;;;;;;;;17.70;45.90;;;;;;1565745;74;1172;-71
2024/02/02 01:04:09;;;;;;;;;;;17.70;45.90;;;;;;1575266;74;703;-71
2024/02/02 01:06:11;;;;;;;;;;;17.70;45.90;;;;;;1568103;74;685;-71
2024/02/02 01:08:13;;;;;;;;;;;17.70;45.90;;;;;;1571775;74;1485;-71
2024/02/02 01:10:16;;;;;;;;;;;17.70;45.90;;;;;;1569526;74;739;-70
2024/02/02 01:12:19;;;;;;;;;;;17.70;45.90;;;;;;1570827;74;1230;-70
2024/02/02 01:14:21;;;;;;;;;;;17.70;46.00;;;;;;1571034;74;661;-69
2024/02/02 01:16:23;;;;;;;;;;;17.70;45.90;;;;;;1570007;74;735;-70
2024/02/02 01:18:25;;;;;;;;;;;17.70;45.90;;;;;;1568210;74;722;-70
2024/02/02 01:20:27;;;;;;;;;;;17.70;46.00;;;;;;1569482;74;1933;-71
2024/02/02 01:22:29;;;;;;;;;;;17.70;45.90;;;;;;1564802;74;1140;-71
2024/02/02 01:24:31;;;;;;;;;;;17.60;45.80;;;;;;1566645;74;786;-71
2024/02/02 01:26:33;;;;;;;;;;;17.70;45.90;;;;;;1571274;74;647;-70
2024/02/02 01:28:35;;;;;;;;;;;17.70;45.90;;;;;;1567393;74;731;-70
2024/02/02 01:30:37;;;;;;;;;;;17.60;45.80;;;;;;1572903;74;716;-69
2024/02/02 01:32:39;;;;;;;;;;;17.70;45.90;;;;;;1564959;74;1154;-70
2024/02/02 01:34:41;;;;;;;;;;;17.60;45.80;;;;;;1578735;74;815;-71
2024/02/02 01:36:43;;;;;;;;;;;17.60;45.90;;;;;;1563577;74;643;-69
2024/02/02 01:38:50;;;;;;;;;;;17.60;45.80;;;;;;1576544;74;825;-70
2024/02/02 01:40:48;;;;;;;;;;;17.70;45.90;;;;;;1568267;74;1925;-71
2024/02/02 01:42:51;;;;;;;;;;;17.60;45.80;;;;;;1575971;74;1138;-71
2024/02/02 01:44:52;;;;;;;;;;;17.60;45.80;;;;;;1572182;74;806;-71
2024/02/02 01:46:54;;;;;;;;;;;17.60;45.80;;;;;;1568886;74;729;-71
2024/02/02 01:48:57;;;;;;;;;;;17.60;45.90;;;;;;1572791;74;678;-72
2024/02/02 01:50:59;;;;;;;;;;;17.60;45.80;;;;;;1570082;74;652;-70
2024/02/02 01:53:01;;;;;;;;;;;17.60;45.80;;;;;;1571223;74;1183;-71
2024/02/02 01:55:04;;;;;;;;;;;17.60;45.90;;;;;;1569426;74;770;-71
2024/02/02 01:57:06;;;;;;;;;;;17.70;46.00;;;;;;1570622;74;557;-68
2024/02/02 01:59:08;;;;;;;;;;;17.60;45.80;;;;;;1571259;74;769;-69
2024/02/02 02:01:09;;;;;;;;;;;17.70;45.90;;;;;;1568524;74;1907;-69
2024/02/02 02:03:11;;;;;;;;;;;17.70;45.90;;;;;;1580432;74;1096;-71
2024/02/02 02:05:13;;;;;;;;;;;17.60;45.80;;;;;;1568670;74;677;-71
2024/02/02 02:07:16;;;;;;;;;;;17.60;45.80;;;;;;1569561;74;1333;-70
2024/02/02 02:09:18;;;;;;;;;;;17.60;45.90;;;;;;1574554;74;741;-71
2024/02/02 02:11:20;;;;;;;;;;;17.60;45.80;;;;;;1562136;74;649;-71
2024/02/02 02:13:22;;;;;;;;;;;17.70;45.90;;;;;;1573376;74;1129;-70
2024/02/02 02:15:25;;;;;;;;;;;17.60;45.80;;;;;;1570389;74;672;-71
2024/02/02 02:17:27;;;;;;;;;;;17.60;45.80;;;;;;1573221;74;650;-69
2024/02/02 02:19:29;;;;;;;;;;;17.60;45.80;;;;;;1572837;74;692;-70
2024/02/02 02:21:31;;;;;;;;;;;17.60;45.80;;;;;;1569054;74;706;-70
2024/02/02 02:23:36;;;;;;;;;;;17.70;46.00;;;;;;1569891;74;1149;-69
2024/02/02 02:25:38;;;;;;;;;;;17.60;45.90;;;;;;1568953;74;1049;-70
2024/02/02 02:27:40;;;;;;;;;;;17.60;45.90;;;;;;1567801;74;715;-69
2024/02/02 02:29:42;;;;;;;;;;;17.60;45.80;;;;;;1580876;74;686;-69
2024/02/02 02:31:45;;;;;;;;;;;17.60;45.80;;;;;;1572888;74;1116;-70
2024/02/02 02:33:47;;;;;;;;;;;17.60;45.80;;;;;;1572513;74;1106;-69
2024/02/02 02:35:49;;;;;;;;;;;17.60;45.80;;;;;;1574894;74;609;-69
2024/02/02 02:37:51;;;;;;;;;;;17.60;45.90;;;;;;1574649;74;726;-70
2024/02/02 02:39:53;;;;;;;;;;;17.60;45.80;;;;;;1571139;74;1916;-70
2024/02/02 02:41:55;;;;;;;;;;;17.60;45.90;;;;;;1570955;74;1148;-70
2024/02/02 02:43:57;;;;;;;;;;;17.60;45.80;;;;;;1567549;74;587;-68
2024/02/02 02:45:59;;;;;;;;;;;17.60;45.80;;;;;;1568086;74;725;-70
2024/02/02 02:48:02;;;;;;;;;;;17.60;45.80;;;;;;1576322;74;744;-70
2024/02/02 02:50:04;;;;;;;;;;;17.60;45.80;;;;;;1573416;74;691;-69
2024/02/02 02:52:06;;;;;;;;;;;17.60;45.90;;;;;;1571674;74;1130;-69
2024/02/02 02:54:08;;;;;;;;;;;17.60;45.90;;;;;;1570554;74;676;-72
2024/02/02 02:56:10;;;;;;;;;;;17.60;45.80;;;;;;1567973;74;794;-68
2024/02/02 02:58:12;;;;;;;;;;;17.60;45.90;;;;;;1574157;74;527;-70
2024/02/02 03:00:14;;;;;;;;;;;17.60;45.90;;;;;;1577137;74;1950;-69
2024/02/02 03:02:16;;;;;;;;;;;17.60;45.80;;;;;;1575789;74;1161;-70
2024/02/02 03:04:18;;;;;;;;;;;17.60;45.80;;;;;;1574349;74;661;-70
2024/02/02 03:06:20;;;;;;;;;;;17.60;45.80;;;;;;1567730;74;590;-70
2024/02/02 03:08:21;;;;;;;;;;;17.60;45.90;;;;;;1576092;74;1469;-70
2024/02/02 03:10:28;;;;;;;;;;;17.60;45.90;;;;;;1572052;74;767;-69
2024/02/02 03:12:27;;;;;;;;;;;17.60;45.90;;;;;;1570526;74;1548;-70
2024/02/02 03:14:29;;;;;;;;;;;17.60;45.80;;;;;;1568683;74;697;-70
2024/02/02 03:16:31;;;;;;;;;;;17.60;45.90;;;;;;1577285;74;815;-70
2024/02/02 03:18:33;;;;;;;;;;;17.60;45.80;;;;;;1570701;74;688;-70
2024/02/02 03:20:35;;;;;;;;;;;17.60;45.90;;;;;;1565498;74;1924;-70
2024/02/02 03:22:38;;;;;;;;;;;17.60;45.90;;;;;;1570333;74;1184;-70
2024/02/02 03:24:39;;;;;;;;;;;17.60;45.90;;;;;;1567625;74;757;-70
2024/02/02 03:26:42;;;;;;;;;;;17.60;45.90;;;;;;1564604;74;704;-70
2024/02/02 03:28:44;;;;;;;;;;;17.60;45.90;;;;;;1573710;74;672;-70
2024/02/02 03:30:45;;;;;;;;;;;17.60;45.80;;;;;;1575212;74;843;-70
2024/02/02 03:32:48;;;;;;;;;;;17.60;45.80;;;;;;1579199;74;1146;-70
2024/02/02 03:34:50;;;;;;;;;;;17.60;45.80;;;;;;1576973;74;649;-68
2024/02/02 03:36:52;;;;;;;;;;;17.60;45.80;;;;;;1576884;74;719;-69
2024/02/02 03:38:54;;;;;;;;;;;17.60;45.80;;;;;;1571721;74;785;-70
2024/02/02 03:40:56;;;;;;;;;;;17.60;45.80;;;;;;1564210;74;1923;-70
2024/02/02 03:42:58;;;;;;;;;;;17.60;45.80;;;;;;1566737;74;1153;-69
2024/02/02 03:45:00;;;;;;;;;;;17.60;45.80;;;;;;1570633;74;728;-70
2024/02/02 03:47:02;;;;;;;;;;;17.60;45.90;;;;;;1566025;74;739;-69
2024/02/02 03:49:03;;;;;;;;;;;17.70;45.90;;;;;;1576490;74;770;-68
2024/02/02 03:51:05;;;;;;;;;;;17.60;45.80;;;;;;1573033;74;750;-70
2024/02/02 03:53:07;;;;;;;;;;;17.60;45.80;;;;;;1583068;74;1118;-70
2024/02/02 03:55:09;;;;;;;;;;;17.60;45.90;;;;;;1572548;74;723;-70
2024/02/02 03:57:11;;;;;;;;;;;17.60;45.80;;;;;;1569017;74;731;-70
2024/02/02 03:59:13;;;;;;;;;;;17.60;45.80;;;;;;1569721;74;836;-70
2024/02/02 04:01:15;;;;;;;;;;;17.60;45.80;;;;;;1569173;74;1934;-70
2024/02/02 04:03:17;;;;;;;;;;;17.60;45.80;;;;;;1578745;74;1109;-70
2024/02/02 04:05:19;;;;;;;;;;;17.60;45.80;;;;;;1578199;74;714;-70
2024/02/02 04:07:21;;;;;;;;;;;17.60;45.90;;;;;;1575516;74;1527;-70
2024/02/02 04:09:23;;;;;;;;;;;17.60;45.80;;;;;;1570218;74;761;-70
2024/02/02 04:11:24;;;;;;;;;;;17.60;45.80;;;;;;1564259;74;696;-70
2024/02/02 04:13:26;;;;;;;;;;;17.60;45.80;;;;;;1572828;74;1048;-70
2024/02/02 04:15:28;;;;;;;;;;;17.60;45.80;;;;;;1573788;74;707;-68
2024/02/02 04:17:30;;;;;;;;;;;17.60;45.80;;;;;;1570805;74;741;-70
2024/02/02 04:19:32;;;;;;;;;;;17.60;45.90;;;;;;1568854;74;719;-70
2024/02/02 04:21:34;;;;;;;;;;;17.60;45.90;;;;;;1573039;74;1941;-70
2024/02/02 04:23:36;;;;;;;;;;;17.60;45.90;;;;;;1576504;74;702;-69
2024/02/02 04:25:38;;;;;;;;;;;17.60;45.80;;;;;;1569494;74;731;-70
2024/02/02 04:27:41;;;;;;;;;;;17.60;45.80;;;;;;1562307;74;719;-70
2024/02/02 04:29:43;;;;;;;;;;;17.60;45.80;;;;;;1566343;74;672;-69
2024/02/02 04:31:45;;;;;;;;;;;17.60;45.80;;;;;;1571334;74;1184;-70
2024/02/02 04:33:47;;;;;;;;;;;17.50;45.80;;;;;;1570735;74;721;-70
2024/02/02 04:35:49;;;;;;;;;;;17.60;45.80;;;;;;1570096;74;791;-69
2024/02/02 04:37:51;;;;;;;;;;;17.60;45.80;;;;;;1565757;74;565;-69
2024/02/02 04:39:53;;;;;;;;;;;17.60;45.80;;;;;;1566993;74;809;-71
2024/02/02 04:41:55;;;;;;;;;;;17.60;45.80;;;;;;1567622;74;1930;-70
2024/02/02 04:43:57;;;;;;;;;;;17.60;45.80;;;;;;1579916;74;758;-68
2024/02/02 04:45:59;;;;;;;;;;;17.50;45.80;;;;;;1571418;74;551;-70
2024/02/02 04:48:01;;;;;;;;;;;17.60;45.80;;;;;;1573990;74;702;-69
2024/02/02 04:50:03;;;;;;;;;;;17.50;45.80;;;;;;1566854;74;736;-70
2024/02/02 04:52:05;;;;;;;;;;;17.60;45.80;;;;;;1567060;74;1119;-69
2024/02/02 04:54:06;;;;;;;;;;;17.60;45.80;;;;;;1575708;74;728;-69
2024/02/02 04:56:08;;;;;;;;;;;17.60;45.80;;;;;;1568686;74;740;-69
2024/02/02 04:58:10;;;;;;;;;;;17.60;45.80;;;;;;1572805;74;700;-70
2024/02/02 05:00:13;;;;;;;;;;;17.60;45.80;;;;;;1574109;74;552;-70
2024/02/02 05:02:15;;;;;;;;;;;17.60;45.80;;;;;;1573540;74;1927;-70
2024/02/02 05:04:17;;;;;;;;;;;17.60;45.80;;;;;;1575776;74;757;-70
2024/02/02 05:06:19;;;;;;;;;;;17.60;45.90;;;;;;1562539;74;783;-70
2024/02/02 05:08:21;;;;;;;;;;;17.60;45.80;;;;;;1566985;74;1557;-70
2024/02/02 05:10:23;;;;;;;;;;;17.50;45.80;;;;;;1566878;74;598;-71
2024/02/02 05:12:25;;;;;;;;;;;17.60;45.80;;;;;;1571160;74;1139;-70
2024/02/02 05:14:27;;;;;;;;;;;17.60;45.80;;;;;;1565891;74;764;-70
2024/02/02 05:16:28;;;;;;;;;;;17.60;45.90;;;;;;1569932;74;695;-69
2024/02/02 05:18:30;;;;;;;;;;;17.60;45.80;;;;;;1569230;74;762;-69
2024/02/02 05:20:32;;;;;;;;;;;17.50;45.80;;;;;;1574425;74;738;-70
2024/02/02 05:22:34;;;;;;;;;;;17.50;45.80;;;;;;1577182;74;1943;-70
2024/02/02 05:24:36;;;;;;;;;;;17.60;45.80;;;;;;1575886;74;721;-70
2024/02/02 05:26:38;;;;;;;;;;;17.60;45.80;;;;;;1571890;74;625;-68
2024/02/02 05:28:40;;;;;;;;;;;17.60;45.80;;;;;;1571074;74;712;-71
2024/02/02 05:30:42;;;;;;;;;;;17.60;45.80;;;;;;1572763;74;792;-68
2024/02/02 05:32:44;;;;;;;;;;;17.60;45.80;;;;;;1576423;74;1152;-69
2024/02/02 05:34:46;;;;;;;;;;;17.60;45.80;;;;;;1572821;74;687;-69
2024/02/02 05:36:47;;;;;;;;;;;17.60;45.90;;;;;;1568725;74;732;-70
2024/02/02 05:38:49;;;;;;;;;;;17.60;45.80;;;;;;1573600;74;611;-70
2024/02/02 05:40:51;;;;;;;;;;;17.60;45.80;;;;;;1566301;74;1930;-69
2024/02/02 05:42:53;;;;;;;;;;;17.60;45.80;;;;;;1575508;74;1182;-70
2024/02/02 05:44:55;;;;;;;;;;;17.60;45.80;;;;;;1576433;74;791;-69
2024/02/02 05:46:57;;;;;;;;;;;17.60;45.80;;;;;;1568348;74;604;-69
2024/02/02 05:48:59;;;;;;;;;;;17.60;45.80;;;;;;1567089;74;671;-69
2024/02/02 05:51:01;;;;;;;;;;;17.60;45.80;;;;;;1569397;74;732;-68
2024/02/02 05:53:02;;;;;;;;;;;17.60;45.80;;;;;;1570773;74;1129;-68
2024/02/02 05:55:04;;;;;;;;;;;17.60;45.80;;;;;;1566660;74;756;-68
2024/02/02 05:57:06;;;;;;;;;;;17.60;45.80;;;;;;1567302;74;659;-70
2024/02/02 05:59:08;;;;;;;;;;;17.60;45.70;;;;;;1573911;74;667;-69
2024/02/02 06:01:10;;;;;;;;;;;17.60;45.80;;;;;;1570339;74;1941;-69
2024/02/02 06:03:12;;;;;;;;;;;17.50;45.80;;;;;;1578489;74;1119;-71
2024/02/02 06:05:14;;;;;;;;;;;17.60;45.80;;;;;;1569897;74;757;-69
2024/02/02 06:07:16;;;;;;;;;;;17.50;45.80;;;;;;1573177;74;1584;-70
2024/02/02 06:09:18;;;;;;;;;;;17.60;45.80;;;;;;1569373;74;689;-70
2024/02/02 06:11:19;;;;;;;;;;;17.60;45.80;;;;;;1567007;74;696;-70
2024/02/02 06:13:21;;;;;;;;;;;17.60;45.80;;;;;;1575106;74;1143;-68
2024/02/02 06:15:23;;;;;;;;;;;17.60;45.70;;;;;;1573572;74;614;-69
2024/02/02 06:17:25;;;;;;;;;;;17.60;45.80;;;;;;1572015;74;698;-71
2024/02/02 06:19:27;;;;;;;;;;;17.60;45.70;;;;;;1572867;74;639;-70
2024/02/02 06:21:29;;;;;;;;;;;17.60;45.70;;;;;;1571836;74;1918;-70
2024/02/02 06:23:31;;;;;;;;;;;17.60;45.70;;;;;;1574191;74;1110;-68
2024/02/02 06:25:33;;;;;;;;;;;17.60;45.70;;;;;;1574461;74;669;-70
2024/02/02 06:27:34;;;;;;;;;;;17.60;45.70;;;;;;1570320;74;667;-69
2024/02/02 06:29:36;;;;;;;;;;;17.60;45.80;;;;;;1574943;74;664;-70
2024/02/02 06:31:39;;;;;;;;;;;17.60;45.80;;;;;;1566143;74;1121;-70
2024/02/02 06:33:41;;;;;;;;;;;17.60;45.70;;;;;;1576961;74;728;-69
2024/02/02 06:35:48;;;;;;;;;;;17.60;45.70;;;;;;1573643;74;793;-69
2024/02/02 06:37:46;;;;;;;;;;;17.60;45.70;;;;;;1568991;74;1605;-70
2024/02/02 06:39:48;;;;;;;;;;;17.60;45.70;;;;;;1574001;74;796;-69
2024/02/02 06:41:50;;;;;;;;;;;17.60;45.70;;;;;;1567629;74;1904;-69
2024/02/02 06:43:52;;;;;;;;;;;17.60;45.70;;;;;;1569011;74;765;-70
2024/02/02 06:45:54;;;;;;;;;;;17.60;45.70;;;;;;1572579;74;721;-70
2024/02/02 06:47:56;;;;;;;;;;;17.60;45.70;;;;;;1572367;74;745;-68
2024/02/02 06:49:58;;;;;;;;;;;17.60;45.70;;;;;;1566275;74;549;-69
2024/02/02 06:52:00;;;;;;;;;;;17.60;45.70;;;;;;1584084;73;1147;-68
2024/02/02 06:54:02;;;;;;;;;;;17.70;45.70;;;;;;1574247;74;744;-69
2024/02/02 06:56:06;;;;;;;;;;;17.60;45.70;;;;;;1563480;74;741;-69
2024/02/02 06:58:15;;;;;;;;;;;17.60;45.60;;;;;;1568865;74;964;-70
2024/02/02 07:00:17;;;;;;;;;;;17.70;45.70;;;;;;1571792;74;893;-69
2024/02/02 07:02:19;;;;;;;;;;;17.60;45.60;;;;;;1570765;74;1926;-70
2024/02/02 07:04:22;;;;;;;;;;;17.70;45.70;;;;;;1549700;76;766;-70
2024/02/02 07:06:23;;;;;;;;;;;17.70;45.70;;;;;;1524500;76;690;-68
2024/02/02 07:08:25;;;;;;;;;;;17.60;45.60;;;;;;1523195;76;1323;-69
2024/02/02 07:10:27;;;;;;;;;;;17.60;45.60;;;;;;1524110;76;677;-70
2024/02/02 07:12:34;;;;;;;;;;;17.60;45.60;;;;;;1522047;76;1160;-70
2024/02/02 07:14:40;;;;;;;;;;;17.60;45.50;;;;;;1522023;76;1114;-69
2024/02/02 07:16:42;;;;;;;;;;;17.60;45.60;;;;;;1521780;76;1194;-68
2024/02/02 07:18:44;;;;;;;;;;;17.60;45.60;;;;;;1519822;76;759;-69
2024/02/02 07:20:50;;;;;;;;;;;17.70;45.70;;;;;;1518247;76;645;-70
2024/02/02 07:22:59;;;;;;;;;;;17.70;45.60;;;;;;1521230;76;1934;-70
2024/02/02 07:25:01;;;;;;;;;;;17.70;45.70;;;;;;1524744;76;623;-69
2024/02/02 07:27:03;;;;;;;;;;;17.70;45.60;;;;;;1522638;76;731;-70
2024/02/02 07:29:05;;;;;;;;;;;17.70;45.70;;;;;;1524498;76;686;-69
2024/02/02 07:31:10;;;;;;;;;;;17.60;45.50;;;;;;1524394;76;697;-69
2024/02/02 07:33:25;;;;;;;;;;;17.70;45.60;;;;;;1524433;76;1104;-70
2024/02/02 07:35:33;;;;;;;;;;;17.60;45.60;;;;;;1518947;76;750;-70
2024/02/02 07:37:37;;;;;;;;;;;17.60;45.50;;;;;;1491049;78;736;-69
2024/02/02 07:39:39;;;;;;;;;;;17.60;45.50;;;;;;1519790;76;1051;-71
2024/02/02 07:41:40;;;;;;;;;;;17.60;45.50;;;;;;1521317;76;1913;-71
2024/02/02 07:43:42;;;;;;;;;;;17.70;45.60;;;;;;1525197;76;729;-70
2024/02/02 07:45:44;;;;;;;;;;;17.70;45.60;;;;;;1523207;76;881;-71
2024/02/02 07:47:46;;;;;;;;;;;17.70;45.60;;;;;;1525444;76;669;-71
2024/02/02 07:49:48;;;;;;;;;;;17.60;45.50;;;;;;1523267;76;733;-70
2024/02/02 07:51:50;;;;;;;;;;;17.70;45.60;;;;;;1523962;76;1179;-71
2024/02/02 07:53:52;;;;;;;;;;;17.60;45.50;;;;;;1528464;76;734;-69
2024/02/02 07:55:54;;;;;;;;;;;17.70;45.60;;;;;;1520479;76;741;-70
2024/02/02 07:57:55;;;;;;;;;;;17.60;45.60;;;;;;1507948;76;692;-71
2024/02/02 07:59:57;;;;;;;;;;;17.70;45.70;;;;;;1524978;76;684;-70
2024/02/02 08:01:59;;;;;;;;;;;17.60;45.50;;;;;;1519505;76;1933;-70
2024/02/02 08:04:01;;;;;;;;;;;17.70;45.60;;;;;;1527190;76;798;-71
2024/02/02 08:06:03;;;;;;;;;;;17.60;45.50;;;;;;1522934;76;738;-69
2024/02/02 08:08:10;;;;;;;;;;;17.40;45.40;;;;;;1520413;76;1503;-70
2024/02/02 08:10:12;;;;;;;;;;;17.70;45.60;;;;;;1515923;76;698;-71
2024/02/02 08:12:14;;;;;;;;;;;17.70;45.60;;;;;;1518940;76;1148;-71
2024/02/02 08:14:15;;;;;;;;;;;17.60;45.50;;;;;;1524762;76;771;-70
2024/02/02 08:16:17;;;;;;;;;;;17.70;45.60;;;;;;1523271;76;804;-71
2024/02/02 08:18:19;;;;;;;;;;;17.60;45.50;;;;;;1519599;76;810;-71
2024/02/02 08:20:21;;;;;;;;;;;17.70;45.60;;;;;;1522615;76;764;-70
2024/02/02 08:22:26;;;;;;;;;;;17.60;45.50;;;;;;1522666;76;1938;-71
2024/02/02 08:24:27;;;;;;;;;;;17.70;45.60;;;;;;1520718;76;970;-71
2024/02/02 08:26:29;;;;;;;;;;;17.60;45.60;;;;;;1522734;76;676;-70
2024/02/02 08:28:31;;;;;;;;;;;17.60;45.50;;;;;;1522130;76;724;-71
2024/02/02 08:30:33;;;;;;;;;;;17.60;45.50;;;;;;1521889;76;705;-71
2024/02/02 08:32:37;;;;;;;;;;;17.60;45.50;;;;;;1521372;76;1212;-69
2024/02/02 08:34:39;;;;;;;;;;;17.60;45.50;;;;;;1520184;76;597;-71
2024/02/02 08:36:40;;;;;;;;;;;17.60;45.50;;;;;;1519970;76;785;-70
2024/02/02 08:38:42;;;;;;;;;;;17.60;45.50;;;;;;1521647;76;703;-70
2024/02/02 08:40:44;;;;;;;;;;;17.60;45.50;;;;;;1525177;76;720;-71
2024/02/02 08:42:46;;;;;;;;;;;17.60;45.50;;;;;;1527772;76;1934;-71
2024/02/02 08:44:48;;;;;;;;;;;17.60;45.50;;;;;;1532603;76;708;-71
2024/02/02 08:46:50;;;;;;;;;;;17.70;45.60;;;;;;1522141;76;757;-70
2024/02/02 08:48:54;;;;;;;;;;;17.70;45.60;;;;;;1519382;76;681;-71
2024/02/02 08:50:56;;;;;;;;;;;17.60;45.50;;;;;;1524644;76;1757;-71
2024/02/02 08:52:57;;;;;;;;;;;17.60;45.50;;;;;;1519433;76;1152;-70
2024/02/02 08:55:04;;;;;;;;;;;17.60;45.50;;;;;;1520145;76;716;-70
2024/02/02 08:57:10;;;;;;;;;;;17.60;45.50;;;;;;1524548;76;746;-70
2024/02/02 08:59:30;;;;;;;;;;;17.70;45.50;;;;;;1522656;76;750;-70
2024/02/02 09:01:34;;;;;;;;;;;17.70;45.50;;;;;;1520878;76;680;-71
2024/02/02 09:03:43;;;;;;;;;;;17.60;45.50;;;;;;1527962;76;1957;-70
2024/02/02 09:05:46;;;;;;;;;;;17.70;45.50;;;;;;1524303;76;1049;-68
2024/02/02 09:07:52;;;;;;;;;;;17.60;45.50;;;;;;1525426;76;1441;-70
2024/02/02 09:09:54;;;;;;;;;;;17.60;45.50;;;;;;1520519;76;726;-68
2024/02/02 09:11:56;;;;;;;;;;;17.70;45.60;;;;;;1525372;76;1135;-71
2024/02/02 09:14:00;;;;;;;;;;;17.60;45.40;;;;;;1527342;76;771;-70
2024/02/02 09:16:02;;;;;;;;;;;17.60;45.50;;;;;;1523845;76;676;-68
2024/02/02 09:18:04;;;;;;;;;;;17.60;45.50;;;;;;1519157;76;679;-70
2024/02/02 09:20:06;;;;;;;;;;;17.60;45.50;;;;;;1523283;76;732;-70
2024/02/02 09:22:15;;;;;;;;;;;17.60;45.50;;;;;;1493072;78;1944;-70
2024/02/02 09:24:16;;;;;;;;;;;17.60;45.50;;;;;;1528545;76;1070;-69
2024/02/02 09:26:22;;;;;;;;;;;17.60;45.50;;;;;;1526831;76;1609;-71
2024/02/02 09:28:29;;;;;;;;;;;17.60;45.50;;;;;;1533041;76;1895;-68
2024/02/02 09:30:31;;;;;;;;;;;17.60;45.40;;;;;;1533684;76;707;-70
2024/02/02 09:32:33;;;;;;;;;;;17.60;45.50;;;;;;1534157;76;1125;-70
2024/02/02 09:34:34;;;;;;;;;;;17.70;45.50;;;;;;1526211;76;731;-70
2024/02/02 09:36:38;;;;;;;;;;;17.60;45.50;;;;;;1525909;76;635;-72
2024/02/02 09:38:40;;;;;;;;;;;17.70;45.60;;;;;;1523676;76;1210;-71
2024/02/02 09:40:43;;;;;;;;;;;17.60;45.50;;;;;;1529071;76;645;-69
2024/02/02 09:42:50;;;;;;;;;;;17.70;45.50;;;;;;1523801;76;1965;-70
2024/02/02 09:44:58;;;;;;;;;;;17.70;45.50;;;;;;1526707;76;1132;-70
2024/02/02 09:47:02;;;;;;;;;;;17.60;45.50;;;;;;1522174;76;690;-71
2024/02/02 09:49:05;;;;;;;;;;;17.60;45.50;;;;;;1526141;76;764;-69
2024/02/02 09:51:18;;;;;;;;;;;17.60;45.50;;;;;;1524598;76;627;-71
2024/02/02 09:53:38;;;;;;;;;;;17.60;45.40;;;;;;1527003;76;1147;-71
2024/02/02 09:55:42;;;;;;;;;;;17.60;45.50;;;;;;1520128;76;666;-69
2024/02/02 09:57:54;;;;;;;;;;;17.70;45.50;;;;;;1521998;76;953;-71
2024/02/02 10:00:13;;;;;;;;;;;17.70;45.50;;;;;;1525512;76;742;-70
2024/02/02 10:02:29;;;;;;;;;;;17.60;45.50;;;;;;1520420;76;1930;-71
2024/02/02 10:04:32;;;;;;;;;;;17.60;45.50;;;;;;1526342;76;1172;-68
2024/02/02 10:06:36;;;;;;;;;;;17.60;45.40;;;;;;1523873;76;1094;-69
2024/02/02 10:08:42;;;;;;;;;;;17.60;45.40;;;;;;1524840;76;1625;-69
2024/02/02 10:11:02;;;;;;;;;;;17.60;45.40;;;;;;1521127;76;1222;-70
2024/02/02 10:13:05;;;;;;;;;;;17.60;45.50;;;;;;1523639;76;1174;-71
2024/02/02 10:15:21;;;;;;;;;;;17.60;45.50;;;;;;1525342;76;1168;-71
2024/02/02 10:17:34;;;;;;;;;;;17.60;45.50;;;;;;1524896;76;1278;-71
2024/02/02 10:19:54;;;;;;;;;;;17.70;45.60;;;;;;1523995;76;725;-71
2024/02/02 10:22:12;;;;;;;;;;;17.60;45.50;;;;;;1521603;76;1198;-70
2024/02/02 10:24:16;;;;;;;;;;;17.60;45.50;;;;;;1526122;76;1944;-69
2024/02/02 10:26:19;;;;;;;;;;;17.50;45.50;;;;;;1522744;76;1081;-71
2024/02/02 10:28:41;;;;;;;;;;;17.70;45.50;;;;;;1519413;76;1397;-70
2024/02/02 10:31:01;;;;;;;;;;;17.60;45.50;;;;;;1523311;76;721;-69
2024/02/02 10:33:05;;;;;;;;;;;17.60;45.50;;;;;;1516717;76;1107;-70
2024/02/02 10:35:15;;;;;;;;;;;17.60;45.50;;;;;;1525402;76;1413;-69
2024/02/02 10:37:24;;;;;;;;;;;17.60;45.50;;;;;;1522828;76;795;-70
2024/02/02 10:39:27;;;;;;;;;;;17.60;45.50;;;;;;1524876;76;760;-69
2024/02/02 10:41:34;;;;;;;;;;;17.60;45.50;;;;;;1520128;76;593;-71
2024/02/02 10:43:44;;;;;;;;;;;17.70;45.50;;;;;;1524895;76;1948;-70
2024/02/02 10:45:51;;;;;;;;;;;17.60;45.50;;;;;;1523743;76;1173;-70
2024/02/02 10:48:00;;;;;;;;;;;17.60;45.50;;;;;;1526093;76;704;-71
2024/02/02 10:50:07;;;;;;;;;;;17.60;45.50;;;;;;1525950;76;1113;-70
2024/02/02 10:52:27;;;;;;;;;;;17.60;45.50;;;;;;1533227;76;1588;-71
2024/02/02 10:54:41;;;;;;;;;;;17.60;45.50;;;;;;1528727;76;807;-71
2024/02/02 10:56:45;;;;;;;;;;;17.70;45.50;;;;;;1521288;76;796;-70
2024/02/02 10:59:04;;;;;;;;;;;17.60;45.50;;;;;;1524774;76;947;-70
2024/02/02 11:01:23;;;;;;;;;;;17.60;45.50;;;;;;1523379;76;2059;-71
2024/02/02 11:03:38;;;;;;;;;;;17.60;45.50;;;;;;1531065;76;1952;-70
2024/02/02 11:05:45;;;;;;;;;;;17.60;45.50;;;;;;1519478;76;848;-71
2024/02/02 11:07:47;;;;;;;;;;;17.60;45.50;;;;;;1523201;76;1467;-70
2024/02/02 11:10:02;;;;;;;;;;;17.50;45.50;;;;;;1523619;76;589;-71
2024/02/02 11:12:06;;;;;;;;;;;17.60;45.40;;;;;;1521791;76;1129;-70
2024/02/02 11:14:12;;;;;;;;;;;17.60;45.50;;;;;;1523366;76;1390;-70
2024/02/02 11:16:22;;;;;;;;;;;17.50;45.50;;;;;;1524203;76;1143;-69
2024/02/02 11:18:40;;;;;;;;;;;17.60;45.40;;;;;;1521975;76;869;-71
2024/02/02 11:20:47;;;;;;;;;;;17.60;45.40;;;;;;1521120;76;2023;-69
2024/02/02 11:23:06;;;;;;;;;;;17.60;45.50;;;;;;1525438;76;1925;-70
2024/02/02 11:25:13;;;;;;;;;;;17.60;45.50;;;;;;1523934;76;716;-71
2024/02/02 11:27:19;;;;;;;;;;;17.60;45.50;;;;;;1517994;76;721;-71
2024/02/02 11:29:31;;;;;;;;;;;17.60;45.50;;;;;;1524648;76;699;-71
2024/02/02 11:31:34;;;;;;;;;;;17.60;45.50;;;;;;1525214;76;605;-70
2024/02/02 11:33:52;;;;;;;;;;;17.50;45.50;;;;;;1527553;76;1146;-71
2024/02/02 11:35:59;;;;;;;;;;;17.60;45.50;;;;;;1523440;76;723;-70
2024/02/02 11:38:02;;;;;;;;;;;17.60;45.50;;;;;;1522262;76;768;-70
2024/02/02 11:40:12;;;;;;;;;;;17.50;45.50;;;;;;1525759;76;1157;-70
2024/02/02 11:42:12;;;;;;;;;;;17.50;45.50;;;;;;1520957;76;1617;-67
2024/02/02 11:44:14;;;;;;;;;;;17.50;45.50;;;;;;1526416;76;1922;-71
2024/02/02 11:46:17;;;;;;;;;;;17.50;45.50;;;;;;1525326;76;737;-71
2024/02/02 11:48:26;;;;;;;;;;;17.60;45.50;;;;;;1526299;76;743;-69
2024/02/02 11:50:29;;;;;;;;;;;17.50;45.50;;;;;;1522545;76;563;-71
2024/02/02 11:52:32;;;;;;;;;;;17.60;45.50;;;;;;1525615;76;1192;-70
2024/02/02 11:54:36;;;;;;;;;;;17.50;45.50;;;;;;1526140;76;719;-71
2024/02/02 11:56:39;;;;;;;;;;;17.60;45.50;;;;;;1522107;76;590;-71
2024/02/02 11:58:41;;;;;;;;;;;17.60;45.50;;;;;;1526342;76;829;-71
2024/02/02 12:00:54;;;;;;;;;;;17.50;45.50;;;;;;1520426;76;563;-69
2024/02/02 12:03:14;;;;;;;;;;;17.50;45.50;;;;;;1529971;76;1948;-71
2024/02/02 12:05:21;;;;;;;;;;;17.60;45.50;;;;;;1523674;76;758;-72
2024/02/02 12:07:24;;;;;;;;;;;17.60;45.50;;;;;;1525602;76;1453;-70
2024/02/02 12:09:28;;;;;;;;;;;17.60;45.40;;;;;;1525426;76;1822;-71
2024/02/02 12:11:32;;;;;;;;;;;17.50;45.50;;;;;;1521799;76;2134;-71
2024/02/02 12:13:34;;;;;;;;;;;17.50;45.50;;;;;;1522596;76;1120;-71
2024/02/02 12:15:35;;;;;;;;;;;17.60;45.50;;;;;;1504553;77;703;-70
2024/02/02 12:17:38;;;;;;;;;;;17.60;45.50;;;;;;1522931;76;641;-70